createdAt,value
2022-11-02T00:02:14.219Z,88.92
2022-11-02T00:05:16.735Z,89.40
2022-11-02T00:08:18.770Z,87.70
2022-11-02T00:11:20.800Z,87.79
2022-11-02T00:14:23.326Z,88.62
2022-11-02T00:17:25.683Z,88.63
2022-11-02T00:20:28.254Z,88.88
2022-11-02T00:23:32.232Z,89.33
2022-11-02T00:26:36.455Z,89.84
2022-11-02T00:29:38.592Z,89.61
2022-11-02T00:32:41.612Z,90.54
2022-11-02T00:35:45.282Z,90.39
2022-11-02T00:38:47.349Z,91.04
2022-11-02T00:41:49.377Z,91.04
2022-11-02T00:44:51.414Z,90.37
2022-11-02T00:47:54.626Z,89.57
2022-11-02T00:50:57.508Z,89.75
2022-11-02T00:54:03.005Z,89.03
2022-11-02T00:57:05.294Z,88.81
2022-11-02T01:00:10.226Z,88.91
2022-11-02T01:03:12.443Z,88.67
2022-11-02T01:06:15.919Z,88.67
2022-11-02T01:09:18.021Z,89.59
2022-11-02T01:12:20.682Z,90.25
2022-11-02T01:15:22.714Z,90.52
2022-11-02T01:18:24.781Z,90.21
2022-11-02T01:21:27.183Z,91.01
2022-11-02T01:24:30.413Z,91.07
2022-11-02T01:27:32.398Z,90.59
2022-11-02T01:30:34.401Z,91.25
2022-11-02T01:33:36.798Z,90.86
2022-11-02T01:36:39.279Z,90.50
2022-11-02T01:39:41.410Z,90.39
2022-11-02T01:42:43.476Z,90.32
2022-11-02T01:45:46.373Z,92.17
2022-11-02T01:48:50.878Z,92.10
2022-11-02T01:52:07.717Z,90.94
2022-11-02T01:55:25.046Z,92.13
2022-11-02T01:58:27.334Z,91.24
2022-11-02T02:01:30.442Z,91.48
2022-11-02T02:04:33.534Z,91.99
2022-11-02T02:07:40.330Z,91.76
2022-11-02T02:10:42.301Z,91.21
2022-11-02T02:13:44.927Z,90.14
2022-11-02T02:16:58.375Z,90.47
2022-11-02T02:20:11.681Z,89.92
2022-11-02T02:23:45.978Z,89.89
2022-11-02T02:26:58.635Z,90.23
2022-11-02T02:30:02.123Z,89.96
2022-11-02T02:33:14.466Z,90.13
2022-11-02T02:36:29.567Z,90.35
2022-11-02T02:39:37.167Z,90.12
2022-11-02T02:42:52.222Z,91.07
2022-11-02T02:45:59.312Z,90.89
2022-11-02T02:49:03.752Z,91.25
2022-11-02T02:52:06.800Z,90.50
2022-11-02T02:55:16.247Z,91.13
2022-11-02T02:58:30.102Z,90.12
2022-11-02T03:01:34.004Z,90.42
2022-11-02T03:04:37.004Z,91.09
2022-11-02T03:07:39.259Z,90.55
2022-11-02T03:11:14.056Z,90.20
2022-11-02T03:14:33.307Z,90.54
2022-11-02T03:18:06.331Z,90.47
2022-11-02T03:21:21.564Z,90.20
2022-11-02T03:24:27.787Z,89.80
2022-11-02T03:27:45.895Z,89.44
2022-11-02T03:30:57.917Z,89.13
2022-11-02T03:34:08.984Z,88.74
2022-11-02T03:37:22.137Z,89.34
2022-11-02T03:40:30.112Z,90.90
2022-11-02T03:43:38.589Z,90.78
2022-11-02T03:46:43.920Z,90.86
2022-11-02T03:49:50.736Z,90.95
2022-11-02T03:53:07.699Z,91.06
2022-11-02T03:56:20.214Z,90.62
2022-11-02T03:59:22.498Z,91.25
2022-11-02T04:02:24.810Z,90.85
2022-11-02T04:05:29.577Z,90.63
2022-11-02T04:08:42.174Z,89.64
2022-11-02T04:12:04.447Z,89.03
2022-11-02T04:15:08.655Z,88.68
2022-11-02T04:18:30.332Z,88.79
2022-11-02T04:21:33.466Z,89.22
2022-11-02T04:24:56.201Z,88.18
2022-11-02T04:28:07.613Z,91.61
2022-11-02T04:31:13.214Z,93.11
2022-11-02T04:34:16.639Z,94.99
2022-11-02T04:37:37.548Z,98.63
2022-11-02T04:40:39.880Z,98.71
2022-11-02T04:43:42.095Z,97.44
2022-11-02T04:46:44.963Z,97.77
2022-11-02T04:49:48.920Z,97.65
2022-11-02T04:53:01.315Z,96.57
2022-11-02T04:56:05.746Z,96.71
2022-11-02T04:59:08.860Z,96.76
2022-11-02T05:02:12.661Z,96.23
2022-11-02T05:05:18.112Z,96.41
2022-11-02T05:08:21.408Z,96.39
2022-11-02T05:11:24.640Z,96.84
2022-11-02T05:14:27.541Z,98.07
2022-11-02T05:17:29.817Z,99.78
2022-11-02T05:20:32.885Z,100.00
2022-11-02T05:23:35.089Z,100.00
2022-11-02T05:26:37.571Z,100.00
2022-11-02T05:29:40.188Z,100.00
2022-11-02T05:32:42.771Z,100.00
2022-11-02T05:35:45.060Z,100.00
2022-11-02T05:38:47.565Z,100.00
2022-11-02T05:41:49.705Z,100.00
2022-11-02T05:44:51.880Z,100.00
2022-11-02T05:47:54.493Z,100.00
2022-11-02T05:50:58.058Z,100.00
2022-11-02T05:54:00.103Z,100.00
2022-11-02T05:57:02.161Z,100.00
2022-11-02T06:00:06.764Z,100.00
2022-11-02T06:03:14.332Z,100.00
2022-11-02T06:06:16.479Z,100.00
2022-11-02T06:09:18.485Z,100.00
2022-11-02T06:12:20.585Z,100.00
2022-11-02T06:15:22.594Z,100.00
2022-11-02T06:18:24.647Z,100.00
2022-11-02T06:21:26.798Z,100.00
2022-11-02T06:24:28.808Z,100.00
2022-11-02T06:27:30.914Z,97.97
2022-11-02T06:30:33.763Z,93.72
2022-11-02T06:33:35.837Z,89.99
2022-11-02T06:36:37.873Z,91.68
2022-11-02T06:39:39.898Z,93.54
2022-11-02T06:42:45.107Z,94.30
2022-11-02T06:45:59.398Z,92.61
2022-11-02T06:49:01.296Z,91.12
2022-11-02T06:52:03.468Z,89.77
2022-11-02T06:55:06.021Z,90.10
2022-11-02T06:58:08.134Z,89.10
2022-11-02T07:01:11.644Z,88.28
2022-11-02T07:04:14.160Z,87.69
2022-11-02T07:07:16.555Z,86.71
2022-11-02T07:10:18.819Z,88.09
2022-11-02T07:13:20.957Z,89.41
2022-11-02T07:16:23.035Z,89.65
2022-11-02T07:19:25.048Z,87.17
2022-11-02T07:22:26.998Z,86.88
2022-11-02T07:25:33.635Z,86.17
2022-11-02T07:28:38.206Z,85.20
2022-11-02T07:31:40.541Z,84.40
2022-11-02T07:34:42.826Z,83.82
2022-11-02T07:37:45.309Z,82.61
2022-11-02T07:40:49.890Z,82.75
2022-11-02T07:43:52.086Z,83.76
2022-11-02T07:47:01.677Z,83.96
2022-11-02T07:50:03.958Z,83.95
2022-11-02T07:53:06.256Z,87.03
2022-11-02T07:56:08.759Z,89.88
2022-11-02T07:59:13.640Z,91.97
2022-11-02T08:02:15.700Z,91.26
2022-11-02T08:05:17.809Z,85.87
2022-11-02T08:08:21.995Z,81.40
2022-11-02T08:11:25.467Z,78.97
2022-11-02T08:14:27.576Z,71.45
2022-11-02T08:17:30.155Z,71.53
2022-11-02T08:20:34.092Z,68.81
2022-11-02T08:23:37.110Z,67.46
2022-11-02T08:26:41.074Z,69.04
2022-11-02T08:29:46.147Z,71.12
2022-11-02T08:32:51.500Z,73.64
2022-11-02T08:36:01.877Z,74.25
2022-11-02T08:39:04.167Z,74.25
2022-11-02T08:42:06.393Z,75.65
2022-11-02T08:45:08.828Z,76.40
2022-11-02T08:48:10.938Z,77.96
2022-11-02T08:51:13.028Z,77.75
2022-11-02T08:54:15.138Z,77.96
2022-11-02T08:57:17.349Z,77.00
2022-11-02T09:00:21.611Z,77.59
2022-11-02T09:03:27.744Z,76.45
2022-11-02T09:06:30.138Z,77.20
2022-11-02T09:09:32.800Z,78.66
2022-11-02T09:12:34.832Z,77.33
2022-11-02T09:15:38.194Z,77.38
2022-11-02T09:18:40.373Z,77.20
2022-11-02T09:21:42.330Z,78.11
2022-11-02T09:24:44.350Z,78.02
2022-11-02T09:27:55.656Z,79.05
2022-11-02T09:30:58.258Z,78.45
2022-11-02T09:34:00.739Z,78.51
2022-11-02T09:37:02.793Z,78.16
2022-11-02T09:40:05.988Z,78.70
2022-11-02T09:43:19.640Z,78.82
2022-11-02T09:46:33.518Z,77.66
2022-11-02T09:49:35.973Z,78.77
2022-11-02T09:52:41.565Z,78.25
2022-11-02T09:55:52.336Z,81.94
2022-11-02T09:59:16.596Z,81.33
2022-11-02T10:02:40.226Z,80.07
2022-11-02T10:05:46.090Z,80.25
2022-11-02T10:09:24.348Z,80.74
2022-11-02T10:12:53.190Z,79.28
2022-11-02T10:16:00.954Z,78.83
2022-11-02T10:19:10.234Z,79.25
2022-11-02T10:22:15.016Z,78.61
2022-11-02T10:25:17.392Z,78.93
2022-11-02T10:28:26.624Z,78.67
2022-11-02T10:31:34.448Z,80.02
2022-11-02T10:34:36.724Z,80.52
2022-11-02T10:37:41.486Z,78.64
2022-11-02T10:40:59.576Z,78.06
2022-11-02T10:44:08.835Z,77.51
2022-11-02T10:47:24.515Z,77.14
2022-11-02T10:50:49.150Z,76.28
2022-11-02T10:53:53.374Z,76.52
2022-11-02T10:56:56.707Z,76.26
2022-11-02T11:00:34.437Z,76.87
2022-11-02T11:04:01.441Z,76.37
2022-11-02T11:07:27.915Z,75.27
2022-11-02T11:10:36.514Z,75.86
2022-11-02T11:20:39.475Z,75.06
2022-11-02T11:23:41.860Z,75.65
2022-11-02T11:26:46.975Z,74.70
2022-11-02T11:29:57.989Z,75.27
2022-11-02T11:33:01.895Z,75.54
2022-11-02T11:36:06.404Z,75.41
2022-11-02T11:39:31.781Z,75.95
2022-11-02T11:42:37.245Z,75.87
2022-11-02T11:45:39.283Z,76.28
2022-11-02T11:48:54.589Z,75.86
2022-11-02T11:52:00.525Z,76.71
2022-11-02T11:55:32.268Z,76.49
2022-11-02T11:58:35.277Z,77.32
2022-11-02T12:01:40.615Z,75.99
2022-11-02T12:04:42.699Z,77.49
2022-11-02T12:08:19.443Z,76.97
2022-11-02T12:11:27.916Z,77.17
2022-11-02T12:14:48.611Z,77.18
2022-11-02T12:18:27.981Z,77.93
2022-11-02T12:21:51.113Z,77.07
2022-11-02T12:25:07.590Z,76.56
2022-11-02T12:28:19.477Z,74.88
2022-11-02T12:31:27.739Z,74.46
2022-11-02T12:34:41.755Z,73.15
2022-11-02T12:38:00.562Z,71.48
2022-11-02T12:41:07.526Z,71.10
2022-11-02T12:44:18.493Z,70.83
2022-11-02T12:47:35.007Z,71.39
2022-11-02T12:51:07.986Z,70.42
2022-11-02T12:54:20.806Z,70.24
2022-11-02T12:57:26.056Z,71.18
2022-11-02T13:00:29.563Z,71.10
2022-11-02T13:03:47.515Z,71.81
2022-11-02T13:07:02.027Z,72.93
2022-11-02T13:10:15.073Z,71.99
2022-11-02T13:13:21.827Z,72.75
2022-11-02T13:16:49.717Z,73.23
2022-11-02T13:19:58.423Z,73.51
2022-11-02T13:23:08.454Z,73.99
2022-11-02T13:26:32.965Z,74.58
2022-11-02T13:29:46.284Z,74.50
2022-11-02T13:32:57.322Z,75.00
2022-11-02T13:35:59.353Z,75.25
2022-11-02T13:39:32.726Z,76.55
2022-11-02T13:43:11.840Z,76.42
2022-11-02T13:46:46.746Z,75.74
2022-11-02T13:49:52.349Z,75.79
2022-11-02T13:53:08.160Z,76.62
2022-11-02T13:56:13.379Z,76.31
2022-11-02T14:00:02.788Z,75.38
2022-11-02T14:03:22.887Z,75.20
2022-11-02T14:06:27.878Z,75.30
2022-11-02T14:09:35.006Z,75.09
2022-11-02T14:12:43.982Z,76.42
2022-11-02T14:15:53.492Z,75.56
2022-11-02T14:19:34.470Z,75.96
2022-11-02T14:22:36.585Z,75.64
2022-11-02T14:25:58.747Z,76.83
2022-11-02T14:29:05.648Z,77.73
2022-11-02T14:32:34.803Z,77.33
2022-11-02T14:35:44.661Z,76.45
2022-11-02T14:38:50.921Z,76.15
2022-11-02T14:42:09.626Z,77.42
2022-11-02T14:45:14.464Z,76.37
2022-11-02T14:48:17.068Z,77.18
2022-11-02T14:51:24.986Z,77.93
2022-11-02T14:54:36.633Z,76.24
2022-11-02T14:57:40.489Z,77.67
2022-11-02T15:04:58.389Z,78.62
2022-11-02T15:08:16.785Z,77.20
2022-11-02T15:11:41.017Z,77.49
2022-11-02T15:14:43.201Z,77.97
2022-11-02T15:17:45.160Z,78.24
2022-11-02T15:20:47.458Z,79.03
2022-11-02T15:24:15.724Z,79.18
2022-11-02T15:27:20.560Z,80.29
2022-11-02T15:30:28.561Z,79.98
2022-11-02T15:33:43.493Z,80.44
2022-11-02T15:36:46.268Z,80.85
2022-11-02T15:39:50.603Z,81.27
2022-11-02T15:42:55.422Z,82.56
2022-11-02T15:46:35.992Z,82.65
2022-11-02T15:49:41.242Z,82.03
2022-11-02T15:53:23.262Z,82.29
2022-11-02T15:56:48.134Z,85.27
2022-11-02T16:00:10.295Z,91.04
2022-11-02T16:03:13.417Z,93.69
2022-11-02T16:06:34.552Z,95.85
2022-11-02T16:09:39.620Z,98.53
2022-11-02T16:12:45.647Z,99.94
2022-11-02T16:15:50.691Z,100.00
2022-11-02T16:18:57.483Z,100.00
2022-11-02T16:22:01.637Z,99.36
2022-11-02T16:25:12.390Z,98.42
2022-11-02T16:28:24.770Z,96.56
2022-11-02T16:31:31.320Z,95.73
2022-11-02T16:34:34.017Z,94.15
2022-11-02T16:37:36.207Z,93.79
2022-11-02T16:40:38.676Z,93.20
2022-11-02T16:43:45.748Z,92.44
2022-11-02T16:46:53.928Z,93.01
2022-11-02T16:50:04.593Z,92.62
2022-11-02T16:53:31.938Z,92.40
2022-11-02T16:56:37.984Z,92.40
2022-11-02T17:00:01.087Z,92.19
2022-11-02T17:03:15.903Z,92.11
2022-11-02T17:06:23.105Z,91.61
2022-11-02T17:09:29.863Z,91.73
2022-11-02T17:12:44.082Z,91.92
2022-11-02T17:15:53.532Z,91.65
2022-11-02T17:18:56.250Z,91.44
2022-11-02T17:22:10.877Z,91.95
2022-11-02T17:25:20.865Z,91.85
2022-11-02T17:28:35.449Z,91.88
2022-11-02T17:31:41.546Z,91.53
2022-11-02T17:34:57.588Z,91.62
2022-11-02T17:38:00.475Z,90.93
2022-11-02T17:41:02.982Z,91.73
2022-11-02T17:44:15.856Z,91.56
2022-11-02T17:47:20.408Z,91.78
2022-11-02T17:50:23.837Z,91.70
2022-11-02T17:53:26.528Z,95.53
2022-11-02T17:56:29.568Z,99.38
2022-11-02T17:59:34.028Z,100.00
2022-11-02T18:02:36.165Z,100.00
2022-11-02T18:05:38.978Z,100.00
2022-11-02T18:08:59.682Z,99.52
2022-11-02T18:12:01.725Z,99.29
2022-11-02T18:15:05.443Z,99.12
2022-11-02T18:18:09.459Z,99.35
2022-11-02T18:21:12.549Z,100.00
2022-11-02T18:24:15.039Z,100.00
2022-11-02T18:27:21.657Z,100.00
2022-11-02T18:30:28.076Z,100.00
2022-11-02T18:33:31.510Z,100.00
2022-11-02T18:36:50.069Z,100.00
2022-11-02T18:39:52.701Z,100.00
2022-11-02T18:42:56.917Z,100.00
2022-11-02T18:46:04.756Z,100.00
2022-11-02T18:49:08.802Z,100.00
2022-11-02T18:52:10.780Z,100.00
2022-11-02T18:55:15.398Z,100.00
2022-11-02T18:58:18.411Z,99.15
2022-11-02T19:01:23.875Z,99.58
2022-11-02T19:04:26.081Z,99.74
2022-11-02T19:07:51.293Z,99.67
2022-11-02T19:10:53.412Z,99.56
2022-11-02T19:13:58.496Z,99.36
2022-11-02T19:17:03.225Z,99.78
2022-11-02T19:20:05.932Z,100.00
2022-11-02T19:23:10.211Z,100.00
2022-11-02T19:26:12.999Z,100.00
2022-11-02T19:29:15.497Z,100.00
2022-11-02T19:32:18.314Z,100.00
2022-11-02T19:35:20.850Z,100.00
2022-11-02T19:38:24.453Z,100.00
2022-11-02T19:41:27.116Z,100.00
2022-11-02T19:44:30.252Z,100.00
2022-11-02T19:47:34.548Z,100.00
2022-11-02T19:50:37.084Z,100.00
2022-11-02T19:53:40.886Z,100.00
2022-11-02T19:56:43.041Z,100.00
2022-11-02T19:59:45.333Z,100.00
2022-11-02T20:02:51.094Z,100.00
2022-11-02T20:05:53.326Z,100.00
2022-11-02T20:08:56.932Z,100.00
2022-11-02T20:12:01.266Z,100.00
2022-11-02T20:15:29.381Z,100.00
2022-11-02T20:18:34.485Z,100.00
2022-11-02T20:21:43.036Z,100.00
2022-11-02T20:24:49.874Z,100.00
2022-11-02T20:27:53.462Z,100.00
2022-11-02T20:30:58.731Z,100.00
2022-11-02T20:34:02.747Z,100.00
2022-11-02T20:37:06.721Z,100.00
2022-11-02T20:40:11.548Z,100.00
2022-11-02T20:43:13.659Z,99.80
2022-11-02T20:46:36.539Z,98.84
2022-11-02T20:49:50.465Z,98.47
2022-11-02T20:52:56.298Z,97.67
2022-11-02T20:55:58.515Z,98.16
2022-11-02T20:59:00.546Z,97.58
2022-11-02T21:02:02.919Z,96.94
2022-11-02T21:05:25.226Z,97.60
2022-11-02T21:08:27.201Z,96.55
2022-11-02T21:11:51.955Z,96.81
2022-11-02T21:14:54.153Z,97.43
2022-11-02T21:17:58.487Z,97.23
2022-11-02T21:21:10.402Z,97.47
2022-11-02T21:24:15.227Z,97.11
2022-11-02T21:27:21.353Z,97.09
2022-11-02T21:30:25.419Z,96.72
2022-11-02T21:33:27.529Z,97.25
2022-11-02T21:36:30.623Z,97.34
2022-11-02T21:40:05.127Z,97.28
2022-11-02T21:43:07.692Z,97.69
2022-11-02T21:46:13.300Z,97.80
2022-11-02T21:49:16.493Z,98.65
2022-11-02T21:52:18.568Z,98.36
2022-11-02T21:55:20.862Z,98.06
2022-11-02T21:58:22.925Z,97.69
2022-11-02T22:01:45.798Z,97.38
2022-11-02T22:04:54.446Z,96.99
2022-11-02T22:08:15.046Z,97.38
2022-11-02T22:11:22.234Z,96.95
2022-11-02T22:14:24.470Z,96.67
2022-11-02T22:17:48.382Z,96.75
2022-11-02T22:20:56.248Z,96.36
2022-11-02T22:23:59.010Z,96.14
2022-11-02T22:27:01.759Z,96.20
2022-11-02T22:30:04.656Z,95.46
2022-11-02T22:33:09.203Z,95.29
2022-11-02T22:36:16.567Z,94.48
2022-11-02T22:39:18.682Z,94.64
2022-11-02T22:42:20.718Z,94.58
2022-11-02T22:45:22.962Z,94.05
2022-11-02T22:48:25.385Z,94.55
2022-11-02T22:51:29.539Z,94.78
2022-11-02T22:54:31.666Z,94.76
2022-11-02T22:57:33.912Z,95.26
2022-11-02T23:00:36.451Z,95.60
2022-11-02T23:03:39.446Z,94.56
2022-11-02T23:06:42.167Z,94.80
2022-11-02T23:09:44.639Z,94.93
2022-11-02T23:12:46.665Z,95.62
2022-11-02T23:15:49.229Z,94.30
2022-11-02T23:19:12.139Z,95.96
2022-11-02T23:22:32.755Z,96.71
2022-11-02T23:25:35.336Z,96.78
2022-11-02T23:28:56.292Z,97.24
2022-11-02T23:32:17.278Z,97.87
2022-11-02T23:35:37.907Z,97.24
2022-11-02T23:39:00.000Z,97.93
2022-11-02T23:42:02.045Z,98.33
2022-11-02T23:45:05.182Z,97.62
2022-11-02T23:48:08.618Z,97.33
2022-11-02T23:51:31.519Z,97.00
2022-11-02T23:54:52.469Z,97.64
2022-11-02T23:57:54.597Z,95.03
